Tama, Iowa
Current Conditions -  °F | °C
As of 8:35 PM on Friday 24 Oct 2014 (Local Time) from KGGI Reporting Station
Haze Haze  
Wind Chill: 56°   Ceiling: 700
Heat Index: 56°   Visibility: 1.7mi
Dew Point: 55°   Wind: 5mph
Humidity: 96%   Direction: 190°S
Pressure: 29.95"   Gusts: NA
Location:  41.97°N, 92.58°W
Report Text: KGGI 250135Z AUTO 19004KT 1 3/4SM BR VV007 14/13 A2995 RMK AO2 T01350128
Loading
Personal Weather Stations






























Interactive Weather Map
Tropical Storm Tracking
New forecast layout! Learn more

10-Day Weather Forecast

Advertisements
Track Severe Weather on mobile